Pagrindinis puslapis
METAR-TAF:

METAR-TAF

Oro uostai :

Bakeu, Rumunija

platuma: 46-35N, ilguma: 026-58E, Aukštis: 184 m

Dabartinis oras

Ataskaita buvo paskelbta 15 minutes, ne 16:00 UTC
Vėjas 7 kt iš Šiaurės
Temperatūra 16°C
Drėgmė 27%
Slėgis 1005 hPa
Matomumas 10 km arba daugiau
nėra debesų žemiau 1500 m ir nėra kamuolinių lietaus debesų

METAR: LRBC 291600Z 01007KT CAVOK 16/M03 Q1005

Laikas: 19:15 (16:15 UTC)

Prognozė

Ataskaita buvo paskelbta 2 valandos ir 15 minutes, ne 14:00 UTC
Prognozė galioja nuo 29 metu 15 UTC su 29 metu 24 UTC
Vėjas 10 kt iš Šiaurės
Matomumas 10 km arba daugiau
nėra debesų žemiau 1500 m ir nėra kamuolinių lietaus debesų
Tapsmas
nuo 29 metu 18 UTC su 29 metu 20 UTC
Vėjas 4 kt nuo kintamojo kryptimis

TAF: LRBC 291400Z 2915/2924 36010KT CAVOK BECMG 2918/2920 VRB04KT

Orai ataskaitas ir orų prognozės (METAR, TAF).

turimą stotys yra geltonos ir raudonos taškus žemėlapyje.

Perkelti pele per norėdami pamatyti stoties vardą.

Tada spustelėkite, norėdami matyti oro stebėjimo ir prognozės.

Norėdami pakeisti žemėlapį: spustelėkite ant žalios mygtukų su juodo kryžiaus žemyn,; žalią mygtuką su brūkšneliu, jei norite nutolinti; arba žalių rodyklių gretimoms žemėlapius.


METAR-TAF: